createdAt,value
2019-01-21T00:02:13.061Z,1.30
2019-01-21T00:04:46.228Z,1.70
2019-01-21T00:07:19.024Z,1.53
2019-01-21T00:09:51.800Z,1.63
2019-01-21T00:12:24.576Z,1.40
2019-01-21T00:14:57.564Z,1.57
2019-01-21T00:17:30.464Z,1.37
2019-01-21T00:20:03.530Z,1.30
2019-01-21T00:22:36.338Z,1.47
2019-01-21T00:25:11.222Z,1.50
2019-01-21T00:27:44.133Z,1.80
2019-01-21T00:30:17.498Z,1.73
2019-01-21T00:32:50.331Z,2.03
2019-01-21T00:35:23.306Z,1.53
2019-01-21T00:37:56.083Z,1.40
2019-01-21T00:40:28.739Z,1.20
2019-01-21T00:43:01.719Z,3.00
2019-01-21T00:45:34.627Z,1.90
2019-01-21T00:48:07.603Z,1.87
2019-01-21T00:50:40.537Z,1.90
2019-01-21T00:53:13.400Z,1.97
2019-01-21T00:55:46.370Z,1.90
2019-01-21T00:58:19.158Z,1.20
2019-01-21T01:00:53.223Z,2.33
2019-01-21T01:03:25.957Z,2.03
2019-01-21T01:06:00.325Z,1.73
2019-01-21T01:08:33.156Z,2.17
2019-01-21T01:11:06.068Z,2.27
2019-01-21T01:13:38.925Z,2.33
2019-01-21T01:16:11.996Z,1.40
2019-01-21T01:18:44.925Z,1.27
2019-01-21T01:21:17.873Z,1.63
2019-01-21T01:23:51.288Z,1.50
2019-01-21T01:26:24.882Z,2.08
2019-01-21T01:28:58.282Z,1.52
2019-01-21T01:31:32.821Z,1.90
2019-01-21T01:34:06.492Z,2.00
2019-01-21T01:36:39.285Z,1.83
2019-01-21T01:39:12.349Z,2.23
2019-01-21T01:41:45.382Z,2.50
2019-01-21T01:44:19.510Z,1.65
2019-01-21T01:46:52.266Z,1.75
2019-01-21T01:49:25.985Z,2.00
2019-01-21T01:51:58.962Z,1.50
2019-01-21T01:54:32.017Z,1.55
2019-01-21T01:57:05.017Z,1.45
2019-01-21T01:59:37.924Z,2.02
2019-01-21T02:02:11.746Z,1.42
2019-01-21T02:04:44.597Z,1.90
2019-01-21T02:07:17.564Z,1.65
2019-01-21T02:09:50.246Z,1.65
2019-01-21T02:12:23.141Z,1.45
2019-01-21T02:14:55.998Z,2.23
2019-01-21T02:17:29.327Z,1.80
2019-01-21T02:20:05.350Z,1.45
2019-01-21T02:22:40.410Z,1.47
2019-01-21T02:25:13.390Z,1.67
2019-01-21T02:28:01.313Z,1.70
2019-01-21T02:30:42.792Z,2.10
2019-01-21T02:33:35.521Z,1.93
2019-01-21T02:36:28.425Z,1.90
2019-01-21T02:39:09.290Z,1.97
2019-01-21T02:41:43.346Z,2.10
2019-01-21T02:44:36.590Z,1.70
2019-01-21T02:47:15.834Z,1.67
2019-01-21T02:50:07.112Z,1.77
2019-01-21T02:52:44.871Z,2.30
2019-01-21T02:55:52.411Z,2.20
2019-01-21T02:58:30.381Z,1.57
2019-01-21T03:01:04.991Z,2.13
2019-01-21T03:03:48.909Z,1.67
2019-01-21T03:06:29.374Z,2.17
2019-01-21T03:09:08.253Z,1.63
2019-01-21T03:12:04.064Z,2.00
2019-01-21T03:14:48.324Z,1.70
2019-01-21T03:17:40.093Z,2.03
2019-01-21T03:20:24.085Z,2.20
2019-01-21T03:23:18.096Z,2.00
2019-01-21T03:26:13.191Z,1.63
2019-01-21T03:28:53.052Z,1.90
2019-01-21T03:31:36.813Z,1.50
2019-01-21T03:34:30.054Z,1.80
2019-01-21T03:37:05.184Z,1.67
2019-01-21T03:39:49.246Z,2.00
2019-01-21T03:42:27.384Z,2.47
2019-01-21T03:45:35.543Z,2.10
2019-01-21T03:48:16.497Z,2.40
2019-01-21T03:50:52.689Z,2.30
2019-01-21T03:53:29.592Z,2.13
2019-01-21T03:56:03.837Z,1.93
2019-01-21T03:58:42.012Z,1.93
2019-01-21T04:01:33.356Z,2.50
2019-01-21T04:04:11.477Z,2.00
2019-01-21T04:06:52.317Z,2.60
2019-01-21T04:09:39.595Z,1.50
2019-01-21T04:12:26.519Z,1.93
2019-01-21T04:15:34.466Z,1.77
2019-01-21T04:18:25.536Z,2.13
2019-01-21T04:21:16.612Z,1.83
2019-01-21T04:24:09.317Z,2.07
2019-01-21T04:26:50.053Z,2.20
2019-01-21T04:29:34.118Z,2.07
2019-01-21T04:32:12.780Z,1.97
2019-01-21T04:34:56.270Z,2.03
2019-01-21T04:37:43.476Z,1.93
2019-01-21T04:40:27.144Z,1.87
2019-01-21T04:43:14.142Z,2.30
2019-01-21T04:45:51.569Z,2.20
2019-01-21T04:48:35.866Z,2.13
2019-01-21T04:51:10.663Z,1.63
2019-01-21T04:54:08.066Z,1.97
2019-01-21T04:57:18.027Z,2.13
2019-01-21T05:00:12.842Z,2.07
2019-01-21T05:03:10.246Z,2.07
2019-01-21T05:05:47.977Z,2.50
2019-01-21T05:08:44.104Z,2.20
2019-01-21T05:11:47.649Z,1.97
2019-01-21T05:14:32.606Z,2.10
2019-01-21T05:17:19.898Z,2.60
2019-01-21T05:20:06.742Z,2.23
2019-01-21T05:23:00.476Z,1.90
2019-01-21T05:25:36.699Z,2.20
2019-01-21T05:28:27.130Z,3.23
2019-01-21T05:31:12.360Z,2.80
2019-01-21T05:33:50.286Z,2.23
2019-01-21T05:36:40.422Z,2.57
2019-01-21T05:39:51.730Z,3.40
2019-01-21T05:42:44.790Z,1.87
2019-01-21T05:45:23.541Z,2.40
2019-01-21T05:48:04.051Z,2.57
2019-01-21T05:50:49.014Z,2.50
2019-01-21T05:53:47.381Z,2.37
2019-01-21T05:56:26.584Z,1.83
2019-01-21T05:59:22.937Z,2.30
2019-01-21T06:02:04.627Z,1.73
2019-01-21T06:07:25.732Z,2.00
2019-01-21T06:10:09.703Z,1.67
2019-01-21T06:12:44.578Z,1.30
2019-01-21T06:15:28.373Z,1.90
2019-01-21T06:18:21.532Z,1.83
2019-01-21T06:21:04.724Z,2.10
2019-01-21T06:23:43.782Z,1.33
2019-01-21T06:26:38.683Z,1.57
2019-01-21T06:29:16.416Z,1.30
2019-01-21T06:32:12.127Z,1.60
2019-01-21T06:34:46.900Z,2.20
2019-01-21T06:37:38.227Z,1.70
2019-01-21T06:40:39.095Z,1.63
2019-01-21T06:43:30.609Z,1.67
2019-01-21T06:46:32.949Z,1.90
2019-01-21T06:49:13.797Z,2.10
2019-01-21T06:52:00.673Z,1.80
2019-01-21T06:54:53.476Z,1.70
2019-01-21T06:57:35.087Z,1.87
2019-01-21T07:00:15.783Z,2.20
2019-01-21T07:03:09.268Z,2.50
2019-01-21T07:05:58.925Z,2.93
2019-01-21T07:08:37.274Z,2.70
2019-01-21T07:11:19.155Z,2.20
2019-01-21T07:14:15.467Z,2.50
2019-01-21T07:16:59.500Z,2.53
2019-01-21T07:19:40.199Z,3.00
2019-01-21T07:22:17.814Z,2.63
2019-01-21T07:25:15.240Z,2.87
2019-01-21T07:27:58.965Z,2.73
2019-01-21T07:30:43.928Z,3.13
2019-01-21T07:33:24.839Z,2.80
2019-01-21T07:36:06.117Z,2.47
2019-01-21T07:38:53.362Z,2.27
2019-01-21T07:41:31.113Z,3.17
2019-01-21T07:44:17.959Z,2.53
2019-01-21T07:47:26.104Z,2.60
2019-01-21T07:50:06.492Z,5.07
2019-01-21T07:52:58.183Z,2.80
2019-01-21T07:55:51.015Z,2.90
2019-01-21T07:58:34.692Z,3.03
2019-01-21T08:01:30.439Z,3.60
2019-01-21T08:04:30.545Z,2.40
2019-01-21T08:07:31.009Z,3.20
2019-01-21T08:10:31.818Z,3.87
2019-01-21T08:13:06.709Z,2.80
2019-01-21T08:15:43.933Z,3.30
2019-01-21T08:18:27.602Z,3.30
2019-01-21T08:21:16.991Z,3.83
2019-01-21T08:24:07.196Z,3.80
2019-01-21T08:26:56.786Z,4.10
2019-01-21T08:29:35.227Z,2.43
2019-01-21T08:32:26.340Z,2.63
2019-01-21T08:35:21.726Z,3.40
2019-01-21T08:38:15.070Z,2.20
2019-01-21T08:40:58.825Z,3.60
2019-01-21T08:43:33.730Z,3.30
2019-01-21T08:46:14.562Z,3.57
2019-01-21T08:49:04.664Z,3.43
2019-01-21T08:51:50.982Z,3.37
2019-01-21T08:54:35.019Z,4.00
2019-01-21T08:57:15.661Z,3.33
2019-01-21T09:00:10.252Z,3.70
2019-01-21T09:02:53.726Z,3.10
2019-01-21T09:05:40.221Z,3.03
2019-01-21T09:08:15.208Z,3.37
2019-01-21T09:10:56.655Z,3.50
2019-01-21T09:14:03.291Z,2.97
2019-01-21T09:16:46.075Z,2.73
2019-01-21T09:19:27.584Z,2.40
2019-01-21T09:22:09.014Z,3.10
2019-01-21T09:24:46.237Z,3.47
2019-01-21T09:27:33.427Z,2.47
2019-01-21T09:30:26.631Z,2.80
2019-01-21T09:33:25.083Z,2.80
2019-01-21T09:36:18.998Z,2.87
2019-01-21T09:38:59.936Z,3.10
2019-01-21T09:41:49.896Z,2.77
2019-01-21T09:44:24.957Z,2.37
2019-01-21T09:46:55.628Z,2.47
2019-01-21T09:49:26.253Z,2.60
2019-01-21T09:52:00.881Z,3.13
2019-01-21T09:54:33.721Z,4.50
2019-01-21T09:57:07.857Z,2.70
2019-01-21T09:59:40.656Z,3.07
2019-01-21T10:02:14.045Z,2.97
2019-01-21T10:04:49.003Z,3.03
2019-01-21T10:07:32.721Z,3.70
2019-01-21T10:10:13.820Z,2.87
2019-01-21T10:13:11.174Z,2.33
2019-01-21T10:15:57.831Z,3.33
2019-01-21T10:18:44.397Z,4.20
2019-01-21T10:21:40.297Z,3.53
2019-01-21T10:24:48.134Z,3.33
2019-01-21T10:27:25.624Z,3.23
2019-01-21T10:30:00.525Z,4.20
2019-01-21T10:32:53.393Z,3.83
2019-01-21T10:35:34.353Z,3.80
2019-01-21T10:38:27.676Z,3.07
2019-01-21T10:41:06.486Z,4.50
2019-01-21T10:44:12.826Z,4.27
2019-01-21T10:46:53.538Z,3.63
2019-01-21T10:49:28.643Z,3.60
2019-01-21T10:52:32.698Z,3.87
2019-01-21T10:55:13.887Z,4.30
2019-01-21T10:58:11.475Z,3.83
2019-01-21T11:00:46.126Z,4.27
2019-01-21T11:03:36.157Z,4.10
2019-01-21T11:06:14.078Z,5.17
2019-01-21T11:09:08.194Z,4.40
2019-01-21T11:11:46.358Z,4.40
2019-01-21T11:14:39.209Z,4.97
2019-01-21T11:17:42.762Z,4.60
2019-01-21T11:20:39.654Z,3.47
2019-01-21T11:23:32.315Z,5.17
2019-01-21T11:26:40.364Z,4.40
2019-01-21T11:29:15.064Z,4.13
2019-01-21T11:31:54.981Z,3.07
2019-01-21T11:34:52.481Z,3.23
2019-01-21T11:37:30.137Z,3.30
2019-01-21T11:40:39.589Z,4.90
2019-01-21T11:43:38.243Z,4.50
2019-01-21T11:46:29.672Z,4.43
2019-01-21T11:49:25.454Z,3.67
2019-01-21T11:52:19.253Z,3.87
2019-01-21T11:55:23.981Z,6.23
2019-01-21T11:58:20.909Z,3.73
2019-01-21T12:01:11.998Z,5.07
2019-01-21T12:04:20.090Z,3.90
2019-01-21T12:06:54.762Z,4.00
2019-01-21T12:09:38.912Z,3.90
2019-01-21T12:12:17.390Z,5.17
2019-01-21T12:14:52.417Z,4.07
2019-01-21T12:17:42.321Z,4.20
2019-01-21T12:20:26.952Z,4.47
2019-01-21T12:23:33.737Z,5.60
2019-01-21T12:26:08.774Z,4.70
2019-01-21T12:28:49.796Z,4.17
2019-01-21T12:31:30.954Z,3.90
2019-01-21T12:34:11.551Z,4.13
2019-01-21T12:36:46.356Z,4.33
2019-01-21T12:39:38.818Z,4.33
2019-01-21T12:42:19.665Z,5.00
2019-01-21T12:44:57.505Z,3.97
2019-01-21T12:47:44.442Z,4.20
2019-01-21T12:50:52.358Z,5.33
2019-01-21T12:53:39.387Z,3.83
2019-01-21T12:56:41.655Z,3.30
2019-01-21T12:59:37.714Z,4.30
2019-01-21T13:02:15.211Z,4.33
2019-01-21T13:05:02.379Z,3.80
2019-01-21T13:07:40.216Z,3.97
2019-01-21T13:10:31.268Z,4.73
2019-01-21T13:13:09.334Z,6.87
2019-01-21T13:15:53.031Z,4.83
2019-01-21T13:18:44.155Z,5.10
2019-01-21T13:21:53.896Z,4.93
2019-01-21T13:24:46.291Z,3.67
2019-01-21T13:27:40.515Z,4.63
2019-01-21T13:30:30.713Z,4.03
2019-01-21T13:33:23.532Z,3.57
2019-01-21T13:35:58.465Z,4.70
2019-01-21T13:38:57.624Z,4.90
2019-01-21T13:41:49.892Z,4.40
2019-01-21T13:44:28.209Z,4.50
2019-01-21T13:47:12.393Z,6.43
2019-01-21T13:50:07.300Z,4.10
2019-01-21T13:52:50.841Z,5.10
2019-01-21T13:55:37.877Z,4.60
2019-01-21T13:58:34.040Z,4.00
2019-01-21T14:01:08.836Z,6.90
2019-01-21T14:03:52.874Z,4.43
2019-01-21T14:06:33.635Z,6.17
2019-01-21T14:09:12.211Z,4.40
2019-01-21T14:12:11.548Z,7.40
2019-01-21T14:14:46.671Z,5.30
2019-01-21T14:17:38.206Z,8.03
2019-01-21T14:20:21.602Z,4.97
2019-01-21T14:23:11.246Z,5.70
2019-01-21T14:25:57.724Z,5.37
2019-01-21T14:28:47.581Z,5.70
2019-01-21T14:31:51.398Z,6.00
2019-01-21T14:34:30.336Z,5.23
2019-01-21T14:37:23.792Z,5.40
2019-01-21T14:39:58.390Z,6.30
2019-01-21T14:42:45.774Z,5.37
2019-01-21T14:45:20.684Z,7.10
2019-01-21T14:48:01.159Z,4.83
2019-01-21T14:50:50.438Z,4.77
2019-01-21T14:53:24.501Z,4.47
2019-01-21T14:56:04.935Z,7.00
2019-01-21T14:58:45.906Z,5.10
2019-01-21T15:01:35.486Z,5.27
2019-01-21T15:04:11.138Z,5.53
2019-01-21T15:06:49.091Z,4.13
2019-01-21T15:09:42.359Z,5.30
2019-01-21T15:12:32.628Z,7.20
2019-01-21T15:15:34.022Z,6.37
2019-01-21T15:18:25.088Z,5.50
2019-01-21T15:21:04.373Z,6.03
2019-01-21T15:23:58.588Z,4.50
2019-01-21T15:26:36.280Z,7.47
2019-01-21T15:29:23.115Z,6.20
2019-01-21T15:32:09.992Z,5.60
2019-01-21T15:34:48.184Z,6.77
2019-01-21T15:37:42.604Z,5.37
2019-01-21T15:40:36.754Z,4.63
2019-01-21T15:43:17.998Z,4.30
2019-01-21T15:46:12.090Z,5.43
2019-01-21T15:48:56.197Z,4.20
2019-01-21T15:51:36.262Z,4.47
2019-01-21T15:54:20.249Z,5.50
2019-01-21T15:57:09.859Z,4.67
2019-01-21T15:59:45.099Z,5.27
2019-01-21T16:02:37.736Z,5.53
2019-01-21T16:05:30.380Z,4.83
2019-01-21T16:08:06.311Z,5.13
2019-01-21T16:10:53.282Z,3.90
2019-01-21T16:13:30.975Z,4.57
2019-01-21T16:16:20.885Z,3.97
2019-01-21T16:19:01.807Z,3.63
2019-01-21T16:21:42.993Z,4.20
2019-01-21T16:24:36.919Z,4.60
2019-01-21T16:27:25.098Z,4.47
2019-01-21T16:29:59.807Z,4.47
2019-01-21T16:32:34.516Z,3.60
2019-01-21T16:35:15.147Z,4.30
2019-01-21T16:37:53.089Z,4.90
2019-01-21T16:40:42.703Z,4.40
2019-01-21T16:43:15.753Z,4.40
2019-01-21T16:45:48.530Z,5.93
2019-01-21T16:48:21.385Z,4.70
2019-01-21T16:50:54.357Z,5.10
2019-01-21T16:53:27.509Z,5.10
2019-01-21T16:56:00.274Z,5.03
2019-01-21T16:58:33.346Z,3.80
2019-01-21T17:01:06.334Z,4.17
2019-01-21T17:03:39.410Z,6.40
2019-01-21T17:06:12.215Z,3.83
2019-01-21T17:08:44.994Z,4.57
2019-01-21T17:11:17.975Z,4.20
2019-01-21T17:14:10.271Z,4.97
2019-01-21T17:16:43.405Z,4.73
2019-01-21T17:19:16.189Z,4.60
2019-01-21T17:21:49.179Z,5.50
2019-01-21T17:24:21.851Z,3.47
2019-01-21T17:26:55.481Z,3.30
2019-01-21T17:29:28.357Z,3.80
2019-01-21T17:32:01.591Z,4.40
2019-01-21T17:34:34.330Z,3.30
2019-01-21T17:37:07.314Z,3.03
2019-01-21T17:39:40.086Z,3.67
2019-01-21T17:42:13.056Z,3.43
2019-01-21T17:44:45.731Z,3.60
2019-01-21T17:47:18.642Z,3.83
2019-01-21T17:49:51.507Z,3.90
2019-01-21T17:52:24.415Z,4.57
2019-01-21T17:54:57.197Z,4.20
2019-01-21T17:57:30.099Z,4.53
2019-01-21T18:00:03.428Z,3.03
2019-01-21T18:02:36.549Z,3.40
2019-01-21T18:05:10.242Z,4.27
2019-01-21T18:07:43.351Z,3.80
2019-01-21T18:10:18.307Z,3.60
2019-01-21T18:12:51.360Z,3.20
2019-01-21T18:15:24.273Z,4.33
2019-01-21T18:17:57.274Z,3.20
2019-01-21T18:20:30.323Z,4.50
2019-01-21T18:23:03.121Z,4.20
2019-01-21T18:25:36.102Z,4.20
2019-01-21T18:28:08.883Z,3.47
2019-01-21T18:30:42.064Z,3.20
2019-01-21T18:33:15.051Z,3.90
2019-01-21T18:35:48.045Z,4.50
2019-01-21T18:38:20.818Z,4.00
2019-01-21T18:40:53.813Z,3.37
2019-01-21T18:43:26.593Z,3.47
2019-01-21T18:45:59.809Z,3.10
2019-01-21T18:48:32.688Z,2.90
2019-01-21T18:51:05.752Z,3.40
2019-01-21T18:53:38.425Z,5.33
2019-01-21T18:56:12.240Z,3.60
2019-01-21T18:58:45.132Z,3.80
2019-01-21T19:01:18.134Z,3.13
2019-01-21T19:03:50.896Z,3.87
2019-01-21T19:06:23.853Z,3.73
2019-01-21T19:08:56.874Z,2.87
2019-01-21T19:11:29.852Z,4.50
2019-01-21T19:14:02.630Z,3.63
2019-01-21T19:16:35.826Z,3.43
2019-01-21T19:19:09.450Z,3.27
2019-01-21T19:21:42.503Z,2.97
2019-01-21T19:24:15.399Z,3.40
2019-01-21T19:26:48.439Z,3.63
2019-01-21T19:29:21.438Z,4.63
2019-01-21T19:31:54.563Z,3.07
2019-01-21T19:34:27.237Z,3.27
2019-01-21T19:37:00.126Z,3.27
2019-01-21T19:39:33.546Z,3.27
2019-01-21T19:42:06.310Z,4.07
2019-01-21T19:44:39.837Z,3.07
2019-01-21T19:47:12.695Z,3.00
2019-01-21T19:49:45.762Z,2.67
2019-01-21T19:52:18.675Z,3.50
2019-01-21T19:54:51.667Z,2.80
2019-01-21T19:57:24.450Z,2.60
2019-01-21T19:59:57.411Z,3.80
2019-01-21T20:02:30.228Z,2.97
2019-01-21T20:05:02.983Z,3.23
2019-01-21T20:07:35.895Z,3.73
2019-01-21T20:10:10.702Z,3.93
2019-01-21T20:12:43.785Z,2.90
2019-01-21T20:15:18.145Z,2.90
2019-01-21T20:17:51.800Z,3.93
2019-01-21T20:20:26.954Z,3.47
2019-01-21T20:23:00.099Z,3.30
2019-01-21T20:25:33.040Z,3.20
2019-01-21T20:28:06.180Z,3.30
2019-01-21T20:30:39.108Z,2.70
2019-01-21T20:33:12.052Z,3.73
2019-01-21T20:35:44.973Z,3.13
2019-01-21T20:38:17.629Z,2.70
2019-01-21T20:40:50.671Z,2.47
2019-01-21T20:43:23.517Z,2.63
2019-01-21T20:45:56.490Z,3.50
2019-01-21T20:48:29.284Z,2.97
2019-01-21T20:51:02.338Z,2.73
2019-01-21T20:53:36.387Z,2.70
2019-01-21T20:56:09.474Z,3.20
2019-01-21T20:58:42.138Z,2.50
2019-01-21T21:01:16.209Z,3.13
2019-01-21T21:03:50.353Z,4.23
2019-01-21T21:06:23.250Z,3.10
2019-01-21T21:08:56.064Z,4.23
2019-01-21T21:11:29.224Z,3.03
2019-01-21T21:14:02.011Z,3.13
2019-01-21T21:16:35.095Z,2.80
2019-01-21T21:19:08.007Z,3.03
2019-01-21T21:21:42.071Z,2.87
2019-01-21T21:24:15.898Z,3.13
2019-01-21T21:26:48.871Z,2.73
2019-01-21T21:29:21.862Z,2.70
2019-01-21T21:31:55.006Z,2.10
2019-01-21T21:34:27.963Z,1.93
2019-01-21T21:37:00.868Z,2.70
2019-01-21T21:39:33.745Z,2.37
2019-01-21T21:42:06.717Z,2.20
2019-01-21T21:44:39.501Z,2.70
2019-01-21T21:47:12.688Z,2.23
2019-01-21T21:49:45.461Z,2.27
2019-01-21T21:52:18.517Z,2.20
2019-01-21T21:54:51.454Z,2.13
2019-01-21T21:57:24.709Z,1.63
2019-01-21T21:59:57.645Z,2.17
2019-01-21T22:02:31.323Z,2.10
2019-01-21T22:05:04.358Z,1.73
2019-01-21T22:07:37.550Z,2.30
2019-01-21T22:10:12.106Z,2.03
2019-01-21T22:12:45.302Z,1.87
2019-01-21T22:15:19.895Z,1.70
2019-01-21T22:17:53.031Z,2.43
2019-01-21T22:20:26.979Z,2.63
2019-01-21T22:23:00.239Z,1.77
2019-01-21T22:25:34.143Z,2.50
2019-01-21T22:28:07.228Z,1.97
2019-01-21T22:30:40.212Z,2.77
2019-01-21T22:33:13.008Z,2.30
2019-01-21T22:35:46.169Z,2.30
2019-01-21T22:38:19.397Z,2.20
2019-01-21T22:40:52.297Z,2.07
2019-01-21T22:43:25.157Z,2.43
2019-01-21T22:45:58.210Z,1.70
2019-01-21T22:48:31.137Z,2.43
2019-01-21T22:51:03.976Z,2.10
2019-01-21T22:53:36.895Z,2.43
2019-01-21T22:56:09.971Z,2.00
2019-01-21T22:58:42.877Z,2.07
2019-01-21T23:01:21.885Z,2.20
2019-01-21T23:03:54.784Z,2.93
2019-01-21T23:06:27.967Z,1.80
2019-01-21T23:09:00.760Z,2.17
2019-01-21T23:11:33.543Z,2.03
2019-01-21T23:14:07.004Z,2.40
2019-01-21T23:16:39.925Z,2.30
2019-01-21T23:19:12.900Z,1.70
2019-01-21T23:21:45.897Z,2.47
2019-01-21T23:24:19.076Z,2.27
2019-01-21T23:26:51.880Z,1.93
2019-01-21T23:29:25.252Z,2.00
2019-01-21T23:31:58.116Z,2.30
2019-01-21T23:34:31.429Z,1.63
2019-01-21T23:37:04.433Z,1.70
2019-01-21T23:39:37.994Z,2.10
2019-01-21T23:42:11.521Z,1.60
2019-01-21T23:44:45.317Z,1.90
2019-01-21T23:47:18.092Z,2.00
2019-01-21T23:49:51.411Z,2.27
2019-01-21T23:52:24.270Z,1.73
2019-01-21T23:54:57.290Z,2.07
2019-01-21T23:57:30.154Z,2.20
